Terminal Aerodrome Forecast
Issued by NWS Sterling, VA

Home | Current Version | Previous Version | Text Only | Print | Product List | Glossary On
Versions: 1 2 3 4 5 6 7 8 9 10 11 12 13 14 15 16 17 18 19 20
000
FTUS41 KLWX 290500
TAFIAD
TAF
KIAD 290523Z 2906/3012 VRB03KT P6SM SKC
     FM291600 07006KT P6SM SCT250
     FM292100 13007KT P6SM FEW050 SCT250
     FM300000 VRB03KT P6SM SCT250=

USA.gov is the U.S. government's official web portal to all federal, state and local government web resources and services.